Rockdale, New York
Current Conditions -  °F | °C
As of 6:53 AM on Monday 22 Dec 2014 (Local Time) from KBGM Reporting Station
Overcast Overcast  
Wind Chill: 22°   Ceiling: 1300
Heat Index: 27°   Visibility: 10mi
Dew Point: 23°   Wind: 5mph
Humidity: 85%   Direction: 150°SSE
Pressure: 30.22"   Gusts: NA
Location:  42.4049°N, 75.4053°W
Report Text: KBGM 221153Z 15004KT 10SM OVC013 M03/M05 A3022 RMK AO2 SLP255 T10281050 11028 21033 55004
Loading
Personal Weather Stations






























Interactive Weather Map New forecast layout! Learn more

10-Day Weather Forecast

Advertisements
Track Severe Weather on mobile